Portada
METAR-TAF:

METAR-TAF

Aeroports :

Istre, França

latitud: 43-31N, longitud: 004-56E, altitud: 23 m

Observació

L'informe es va fer fa 41 minuts, a les 10:00 UTC
Vent 5 kt del Nord/Nord-Oest, variant entre Oest/Nord-Oest i Nord
Temperatura 30°C
Humitat 35%
Pressió 1012 hPa
Visibilitat 10 km o més
sense núvols per sota de 1500 mi sense presència de cumulonimbus.

METAR: LFMI 171000Z AUTO 33005KT 290V010 CAVOK 30/13 Q1012 BECMG 20010KT

Hora: 12:41 (10:41 UTC)

Pronòstic

L'informe es va fer fa 2 hores i 41 minuts, a les 08:00 UTC
Pronòstic vàlid del 17 a les 09 UTC al 18 a les 09 UTC
Vent 5 kt amb direcció variable
Visibilitat 10 km o més
sense núvols per sota de 1500 mi sense presència de cumulonimbus.
Evolucionant progressivament
l' 17 a les 10 UTC al 17 a les 11 UTC
Vent 10 kt del Sud/Sud-Oest
Evolucionant progressivament
l' 17 a les 19 UTC al 17 a les 20 UTC
Vent 5 kt amb direcció variable

TAF: LFMI 170800Z 1709/1809 VRB05KT CAVOK BECMG 1710/1711 20010KT BECMG 1719/1720 VRB05KT

Observacions i pronòstics meteorològics de més de 4000 aeroports (METAR i TAF).

Les estacions disponibles són els punts grocs i vermells al mapa.

Posi el ratolí al punt desitjat per veure el nom de l'estació.

Feu clic per veure les observacions i els pronòstics meteorològics.

Per canviar el mapa: feu clic els botons verds amb una creu de color negre per apropar; al botó verd amb un guió per allunyar la imatge; o en les fletxes verdes per a mapes adjacents.


METAR-TAF: